TKPN

Details ICAO TKPN (NEV)
Name Nevis/Amory Intl
Region Saint Kitts and Nevis
Timezone America/St_Kitts (UTC-4.0)
Plans Departing 12
Arriving 12
Stats Elevation 14 ft / 4 m (AMSL)
Location 17.205676° -62.589869°
Runways 1
Magnetic Variation 14.508° W
Sunrise 2018-05-27 09:37:27 UTC / 2018-05-27 05:37:27 Local
Sunset 2018-05-27 22:40:30 UTC / 2018-05-27 18:40:30 Local
Advertisement - Login to hide

Runways

ID Width Length Bearing (true) Bearing (mag) Surface Threshold Offset Overrun Length
10 98 ft / 30 m 3,997 ft / 1,218 m 89.43° 103.94° Asphalt 574 ft / 175 m 0 ft / 0 m
28 98 ft / 30 m 3,997 ft / 1,218 m 269.43° 283.94° Asphalt 0 ft / 0 m 0 ft / 0 m

Map

Weather


0- 5 10 15 20 25 30 35+ Temperature / ° C

Clouds and Precipitation
Forecast for 2018-05-27 12:00 UTC. Updated an hour ago

Ground ~20,000 ft ~40,000 ft Winds

METAR

TKPN 271100Z 09005KT 9999 SCT018 27/24 Q1016

TAF

TAF TKPN 271125Z 2712/2812 10010KT 9999 SCT018 SCT035 PROB40 TEMPO 2712/2724 SHRA FEW012CB BKN014 BKN038 PROB40 TEMPO 2800/2812 SHRA

Frequencies

Ground 121.60 MHz GND
Tower 120.50 MHz TWR
Warning: Do not use this data for real-world aviation or navigation. No guarantee of current accuracy is given.